Terminal Aerodrome Forecast
Issued by NWS Atlanta, GA

Home | Current Version | Previous Version | Text Only | Print | Product List | Glossary On
Versions: 1 2 3 4 5 6 7 8 9 10 11 12 13 14 15 16 17 18 19 20 21
000
FTUS42 KFFC 260528
TAFCSG
TAF
KCSG 260528Z 2606/2706 23007KT P6SM BKN060
     FM260900 26006KT P6SM SCT025 BKN050
     FM261200 29008KT P6SM BKN025
     FM261500 30012G20KT P6SM BKN040
     FM261900 30014G24KT P6SM SCT050
     FM270000 31010KT P6SM FEW100 SCT250=

USA.gov is the U.S. government's official web portal to all federal, state and local government web resources and services.